South Prairie, North Dakota
Current Conditions -  °F | °C
As of 5:54 AM on Saturday 20 Dec 2014 (Local Time) from KMOT Reporting Station
Moderate Fog Moderate Fog  
Wind Chill: 13°   Ceiling: 100
Heat Index: 22°   Visibility: 0.25mi
Dew Point: 20°   Wind: 8mph
Humidity: 92%   Direction: 140°SE
Pressure: 29.9"   Gusts: NA
Location:  48.1414°N, 101.387°W
Report Text: KMOT 201154Z AUTO 14007KT 1/4SM FZFG VV001 M06/M07 A2990 RMK AO2 SLP154 60000 I1001 I6003 T10561067 11050 21061 56004
Loading
Personal Weather Stations






























Interactive Weather Map New forecast layout! Learn more

10-Day Weather Forecast

Advertisements
Track Severe Weather on mobile